Terminal Aerodrome Forecast
Issued by NWS

Current Version | Previous Version | Graphics & Text | Print | Product List | Glossary On
Versions: 1 2 3 4 5 6 7 8 9 10 11 12 13 14 15 16 17 18 19 20 21 22 23 24 25 26 27 28 29 30 31
000
FTUS41 KRLX 230806 AAA
TAFCKB
TAF AMD
KCKB 230806Z 2308/2406 VRB03KT 3SM BR SCT012 OVC035
      TEMPO 2308/2310 BKN012
     FM231000 00000KT P6SM OVC040
     FM231200 00000KT P6SM OVC250
     FM231400 14004KT P6SM BKN035
     FM231500 15006KT 6SM -RA BKN025
     FM231700 20008KT P6SM BKN040
     FM240000 24006KT P6SM SHRA BKN010
     FM240400 24004KT 3SM BR BKN003=

USA.gov is the U.S. government's official web portal to all federal, state and local government web resources and services.